GLO9628 SBGR-SBEG
Flight info
| Callsign | GLO9628 |
|---|---|
| Flight time | 3h 33m |
| Altitude | 36000 |
| Route | GERTU UM417 EVRIV DCT PUDKA DCT MATNA DCT IRUMO |
| Aircraft | B738/M-SDFGIKLORWXY/LB1 |
Departure
| Time | 2026-04-26 10:16 |
|---|---|
| Airport | São Paulo/Guarulhos–Governor André Franco Montoro International Airport (SBGR) |
Arrival
| Time | 2026-04-26 13:49 |
|---|---|
| Airport | Eduardo Gomes International Airport (SBEG) |
| Time | Latitude | Longitude | Altitude | Speed | Heading |
|---|---|---|---|---|---|
| 2026-04-26 09:42 | -23.42808 | -46.48649 | 2460 ft | 0 kts | 97° |
| 2026-04-26 10:07 | -23.42808 | -46.48653 | 2450 ft | 3 kts | 97° |
| 2026-04-26 10:07 | -23.42805 | -46.48682 | 2470 ft | 4 kts | 95° |
| 2026-04-26 10:07 | -23.42802 | -46.48710 | 2463 ft | 4 kts | 108° |
| 2026-04-26 10:08 | -23.42790 | -46.48734 | 2468 ft | 4 kts | 143° |
| 2026-04-26 10:08 | -23.42771 | -46.48742 | 2467 ft | 1 kts | 186° |
| 2026-04-26 10:10 | -23.42778 | -46.48743 | 2460 ft | 2 kts | 186° |
| 2026-04-26 10:10 | -23.42799 | -46.48745 | 2462 ft | 4 kts | 186° |
| 2026-04-26 10:11 | -23.42833 | -46.48749 | 2463 ft | 6 kts | 186° |
| 2026-04-26 10:11 | -23.42879 | -46.48754 | 2460 ft | 7 kts | 185° |
| 2026-04-26 10:11 | -23.42936 | -46.48760 | 2463 ft | 9 kts | 185° |
| 2026-04-26 10:11 | -23.43003 | -46.48767 | 2460 ft | 10 kts | 185° |
| 2026-04-26 10:12 | -23.43072 | -46.48774 | 2460 ft | 10 kts | 185° |
| 2026-04-26 10:12 | -23.43138 | -46.48778 | 2467 ft | 10 kts | 168° |
| 2026-04-26 10:12 | -23.43171 | -46.48720 | 2463 ft | 9 kts | 96° |
| 2026-04-26 10:12 | -23.43177 | -46.48651 | 2461 ft | 9 kts | 95° |
| 2026-04-26 10:13 | -23.43183 | -46.48584 | 2467 ft | 9 kts | 95° |
| 2026-04-26 10:13 | -23.43188 | -46.48519 | 2460 ft | 9 kts | 95° |
| 2026-04-26 10:13 | -23.43194 | -46.48455 | 2460 ft | 8 kts | 95° |
| 2026-04-26 10:13 | -23.43202 | -46.48395 | 2462 ft | 8 kts | 117° |
| 2026-04-26 10:14 | -23.43253 | -46.48378 | 2464 ft | 8 kts | 173° |
| 2026-04-26 10:14 | -23.43283 | -46.48372 | 2465 ft | 0 kts | 166° |
| 2026-04-26 10:15 | -23.43304 | -46.48366 | 2467 ft | 7 kts | 165° |
| 2026-04-26 10:15 | -23.43378 | -46.48339 | 2460 ft | 15 kts | 153° |
| 2026-04-26 10:15 | -23.43394 | -46.48212 | 2461 ft | 22 kts | 72° |
| 2026-04-26 10:15 | -23.43297 | -46.47851 | 2462 ft | 82 kts | 74° |
| 2026-04-26 10:16 | -23.43077 | -46.47034 | 2462 ft | 140 kts | 73° |
| 2026-04-26 10:16 | -23.42753 | -46.45837 | 2468 ft | 188 kts | 74° |
| 2026-04-26 10:16 | -23.42382 | -46.44420 | 3057 ft | 195 kts | 74° |
| 2026-04-26 10:16 | -23.41805 | -46.43050 | 3662 ft | 206 kts | 45° |
| 2026-04-26 10:17 | -23.41072 | -46.42369 | 3922 ft | 212 kts | 32° |
| 2026-04-26 10:17 | -23.39357 | -46.41123 | 4334 ft | 237 kts | 30° |
| 2026-04-26 10:17 | -23.37959 | -46.40064 | 4763 ft | 251 kts | 33° |
| 2026-04-26 10:17 | -23.36519 | -46.38894 | 5216 ft | 269 kts | 40° |
| 2026-04-26 10:18 | -23.35611 | -46.37904 | 5614 ft | 276 kts | 43° |
| 2026-04-26 10:18 | -23.34260 | -46.36383 | 6319 ft | 282 kts | 44° |
| 2026-04-26 10:18 | -23.32909 | -46.34860 | 7018 ft | 285 kts | 43° |
| 2026-04-26 10:18 | -23.31496 | -46.33283 | 7742 ft | 289 kts | 44° |
| 2026-04-26 10:19 | -23.30094 | -46.31722 | 8411 ft | 294 kts | 44° |
| 2026-04-26 10:19 | -23.28658 | -46.30127 | 9119 ft | 297 kts | 44° |
| 2026-04-26 10:19 | -23.27200 | -46.28508 | 9835 ft | 302 kts | 44° |
| 2026-04-26 10:19 | -23.25716 | -46.26862 | 10403 ft | 311 kts | 44° |
| 2026-04-26 10:20 | -23.24145 | -46.25122 | 10586 ft | 333 kts | 44° |
| 2026-04-26 10:20 | -23.22483 | -46.23279 | 10988 ft | 345 kts | 44° |
| 2026-04-26 10:20 | -23.20795 | -46.21407 | 11591 ft | 349 kts | 44° |
| 2026-04-26 10:20 | -23.19088 | -46.19513 | 12260 ft | 352 kts | 43° |
| 2026-04-26 10:21 | -23.17364 | -46.17603 | 12901 ft | 356 kts | 43° |
| 2026-04-26 10:21 | -23.15624 | -46.15678 | 13585 ft | 358 kts | 43° |
| 2026-04-26 10:21 | -23.13870 | -46.13789 | 14188 ft | 360 kts | 37° |
| 2026-04-26 10:21 | -23.11696 | -46.12465 | 14654 ft | 359 kts | 13° |
| 2026-04-26 10:22 | -23.09243 | -46.12167 | 15217 ft | 354 kts | 351° |
| 2026-04-26 10:22 | -23.06870 | -46.12819 | 15743 ft | 351 kts | 332° |
| 2026-04-26 10:22 | -23.04834 | -46.14241 | 16259 ft | 349 kts | 315° |
| 2026-04-26 10:22 | -23.03068 | -46.16054 | 16811 ft | 351 kts | 312° |
| 2026-04-26 10:23 | -23.01331 | -46.17933 | 17355 ft | 354 kts | 311° |
| 2026-04-26 10:23 | -22.99579 | -46.19838 | 17883 ft | 358 kts | 311° |
| 2026-04-26 10:23 | -22.97802 | -46.21751 | 18381 ft | 362 kts | 311° |
| 2026-04-26 10:23 | -22.96016 | -46.23652 | 18836 ft | 364 kts | 312° |
| 2026-04-26 10:24 | -22.94198 | -46.25571 | 19364 ft | 364 kts | 312° |
| 2026-04-26 10:24 | -22.92376 | -46.27489 | 19878 ft | 365 kts | 313° |
| 2026-04-26 10:24 | -22.90558 | -46.29419 | 20331 ft | 366 kts | 310° |
| 2026-04-26 10:24 | -22.89104 | -46.31659 | 20740 ft | 364 kts | 295° |
| 2026-04-26 10:25 | -22.88000 | -46.34138 | 21212 ft | 365 kts | 294° |
| 2026-04-26 10:25 | -22.86916 | -46.36638 | 21644 ft | 367 kts | 294° |
| 2026-04-26 10:25 | -22.85828 | -46.39152 | 22090 ft | 369 kts | 294° |
| 2026-04-26 10:25 | -22.84725 | -46.41677 | 22508 ft | 371 kts | 294° |
| 2026-04-26 10:26 | -22.83611 | -46.44209 | 22934 ft | 373 kts | 295° |
| 2026-04-26 10:26 | -22.82500 | -46.46722 | 23342 ft | 374 kts | 295° |
| 2026-04-26 10:26 | -22.81366 | -46.49271 | 23714 ft | 377 kts | 295° |
| 2026-04-26 10:26 | -22.80219 | -46.51843 | 23965 ft | 381 kts | 295° |
| 2026-04-26 10:27 | -22.79058 | -46.54444 | 24289 ft | 383 kts | 295° |
| 2026-04-26 10:27 | -22.77893 | -46.57050 | 24670 ft | 384 kts | 294° |
| 2026-04-26 10:27 | -22.76732 | -46.59646 | 25093 ft | 383 kts | 294° |
| 2026-04-26 10:27 | -22.75567 | -46.62249 | 25403 ft | 385 kts | 294° |
| 2026-04-26 10:28 | -22.74397 | -46.64865 | 25737 ft | 387 kts | 294° |
| 2026-04-26 10:28 | -22.73221 | -46.67492 | 26069 ft | 388 kts | 294° |
| 2026-04-26 10:28 | -22.72037 | -46.70134 | 26409 ft | 390 kts | 294° |
| 2026-04-26 10:28 | -22.70850 | -46.72783 | 26717 ft | 392 kts | 294° |
| 2026-04-26 10:29 | -22.69657 | -46.75443 | 27048 ft | 393 kts | 294° |
| 2026-04-26 10:29 | -22.68476 | -46.78076 | 27374 ft | 395 kts | 294° |
| 2026-04-26 10:29 | -22.67273 | -46.80755 | 27638 ft | 398 kts | 294° |
| 2026-04-26 10:29 | -22.66056 | -46.83462 | 27858 ft | 402 kts | 294° |
| 2026-04-26 10:30 | -22.64827 | -46.86185 | 28180 ft | 403 kts | 294° |
| 2026-04-26 10:30 | -22.63592 | -46.88918 | 28527 ft | 403 kts | 294° |
| 2026-04-26 10:30 | -22.62358 | -46.91650 | 28850 ft | 405 kts | 294° |
| 2026-04-26 10:30 | -22.61116 | -46.94399 | 29136 ft | 406 kts | 294° |
| 2026-04-26 10:31 | -22.59874 | -46.97155 | 29425 ft | 408 kts | 294° |
| 2026-04-26 10:31 | -22.58627 | -46.99923 | 29713 ft | 410 kts | 294° |
| 2026-04-26 10:31 | -22.57373 | -47.02706 | 30007 ft | 411 kts | 294° |
| 2026-04-26 10:31 | -22.56116 | -47.05492 | 30253 ft | 413 kts | 294° |
| 2026-04-26 10:32 | -22.54902 | -47.08310 | 30475 ft | 413 kts | 289° |
| 2026-04-26 10:32 | -22.54052 | -47.11278 | 30685 ft | 414 kts | 284° |
| 2026-04-26 10:32 | -22.53338 | -47.14269 | 30853 ft | 416 kts | 283° |
| 2026-04-26 10:32 | -22.52636 | -47.17315 | 31059 ft | 418 kts | 283° |
| 2026-04-26 10:33 | -22.51923 | -47.20374 | 31307 ft | 419 kts | 284° |
| 2026-04-26 10:33 | -22.51193 | -47.23423 | 31556 ft | 419 kts | 284° |
| 2026-04-26 10:33 | -22.50446 | -47.26476 | 31756 ft | 421 kts | 284° |
| 2026-04-26 10:33 | -22.49689 | -47.29530 | 31953 ft | 422 kts | 284° |
| 2026-04-26 10:34 | -22.48920 | -47.32609 | 32141 ft | 424 kts | 284° |
| 2026-04-26 10:34 | -22.48148 | -47.35689 | 32336 ft | 425 kts | 284° |
| 2026-04-26 10:34 | -22.47373 | -47.38778 | 32537 ft | 426 kts | 285° |
| 2026-04-26 10:34 | -22.46599 | -47.41866 | 32844 ft | 424 kts | 285° |
| 2026-04-26 10:35 | -22.45828 | -47.44942 | 33195 ft | 422 kts | 285° |
| 2026-04-26 10:35 | -22.45061 | -47.47999 | 33464 ft | 421 kts | 285° |
| 2026-04-26 10:35 | -22.44292 | -47.51061 | 33693 ft | 421 kts | 285° |
| 2026-04-26 10:35 | -22.43364 | -47.54067 | 33808 ft | 425 kts | 296° |
| 2026-04-26 10:36 | -22.41734 | -47.56706 | 33889 ft | 430 kts | 308° |
| 2026-04-26 10:36 | -22.39562 | -47.58931 | 34137 ft | 433 kts | 320° |
| 2026-04-26 10:36 | -22.37115 | -47.60808 | 34462 ft | 430 kts | 322° |
| 2026-04-26 10:36 | -22.34644 | -47.62619 | 34721 ft | 429 kts | 323° |
| 2026-04-26 10:37 | -22.32156 | -47.64425 | 34885 ft | 429 kts | 323° |
| 2026-04-26 10:37 | -22.29678 | -47.66233 | 35047 ft | 430 kts | 322° |
| 2026-04-26 10:37 | -22.27212 | -47.68048 | 35275 ft | 429 kts | 322° |
| 2026-04-26 10:37 | -22.24755 | -47.69871 | 35494 ft | 427 kts | 322° |
| 2026-04-26 10:38 | -22.22303 | -47.71698 | 35637 ft | 428 kts | 322° |
| 2026-04-26 10:38 | -22.19853 | -47.73529 | 35797 ft | 429 kts | 322° |
| 2026-04-26 10:38 | -22.17398 | -47.75364 | 36006 ft | 428 kts | 322° |
| 2026-04-26 10:38 | -22.14949 | -47.77195 | 36014 ft | 429 kts | 322° |
| 2026-04-26 10:39 | -22.10082 | -47.80831 | 36029 ft | 427 kts | 322° |
| 2026-04-26 10:39 | -22.05205 | -47.84470 | 36019 ft | 425 kts | 323° |
| 2026-04-26 10:40 | -22.00340 | -47.88097 | 36037 ft | 423 kts | 323° |
| 2026-04-26 10:40 | -21.95498 | -47.91704 | 36033 ft | 423 kts | 323° |
| 2026-04-26 10:41 | -21.90649 | -47.95313 | 36032 ft | 423 kts | 323° |
| 2026-04-26 10:41 | -21.85798 | -47.98921 | 36036 ft | 424 kts | 323° |
| 2026-04-26 10:42 | -21.80963 | -48.02515 | 36043 ft | 425 kts | 323° |
| 2026-04-26 10:42 | -21.76090 | -48.06165 | 36028 ft | 427 kts | 322° |
| 2026-04-26 10:43 | -21.71239 | -48.09872 | 36037 ft | 428 kts | 322° |
| 2026-04-26 10:43 | -21.66383 | -48.13588 | 36027 ft | 429 kts | 322° |
| 2026-04-26 10:44 | -21.61514 | -48.17302 | 36030 ft | 429 kts | 322° |
| 2026-04-26 10:44 | -21.56662 | -48.20997 | 36029 ft | 430 kts | 322° |
| 2026-04-26 10:45 | -21.51763 | -48.24722 | 36030 ft | 431 kts | 322° |
| 2026-04-26 10:45 | -21.46869 | -48.28440 | 36024 ft | 431 kts | 322° |
| 2026-04-26 10:46 | -21.41975 | -48.32155 | 36023 ft | 430 kts | 323° |
| 2026-04-26 10:46 | -21.37091 | -48.35860 | 36026 ft | 430 kts | 323° |
| 2026-04-26 10:47 | -21.32204 | -48.39564 | 36024 ft | 430 kts | 323° |
| 2026-04-26 10:47 | -21.27345 | -48.43243 | 36024 ft | 430 kts | 323° |
| 2026-04-26 10:48 | -21.22461 | -48.46939 | 36025 ft | 429 kts | 323° |
| 2026-04-26 10:48 | -21.17572 | -48.50635 | 36023 ft | 429 kts | 323° |
| 2026-04-26 10:49 | -21.12693 | -48.54321 | 36025 ft | 429 kts | 323° |
| 2026-04-26 10:49 | -21.07839 | -48.57985 | 36022 ft | 429 kts | 323° |
| 2026-04-26 10:50 | -21.03750 | -48.61069 | 36012 ft | 429 kts | 323° |
| 2026-04-26 10:50 | -20.98069 | -48.65350 | 36028 ft | 429 kts | 323° |
| 2026-04-26 10:51 | -20.90740 | -48.70869 | 36024 ft | 430 kts | 323° |
| 2026-04-26 10:52 | -20.85883 | -48.74522 | 36021 ft | 430 kts | 323° |
| 2026-04-26 10:52 | -20.80984 | -48.78204 | 36021 ft | 430 kts | 324° |
| 2026-04-26 10:53 | -20.76103 | -48.81870 | 36026 ft | 430 kts | 324° |
| 2026-04-26 10:53 | -20.71202 | -48.85546 | 36027 ft | 431 kts | 324° |
| 2026-04-26 10:54 | -20.63831 | -48.91070 | 36014 ft | 431 kts | 324° |
| 2026-04-26 10:54 | -20.58917 | -48.94750 | 36023 ft | 431 kts | 324° |
| 2026-04-26 10:55 | -20.54028 | -48.98410 | 36027 ft | 432 kts | 324° |
| 2026-04-26 10:55 | -20.49909 | -49.01490 | 36027 ft | 432 kts | 324° |
| 2026-04-26 10:56 | -20.46341 | -49.04157 | 36026 ft | 432 kts | 324° |
| 2026-04-26 10:56 | -20.41408 | -49.07842 | 36027 ft | 433 kts | 324° |
| 2026-04-26 10:57 | -20.36704 | -49.11353 | 36019 ft | 433 kts | 324° |
| 2026-04-26 10:57 | -20.31757 | -49.15043 | 36030 ft | 434 kts | 324° |
| 2026-04-26 10:58 | -20.26831 | -49.18713 | 36022 ft | 435 kts | 324° |
| 2026-04-26 10:58 | -20.21867 | -49.22409 | 36011 ft | 435 kts | 324° |
| 2026-04-26 10:59 | -20.16902 | -49.26104 | 36028 ft | 436 kts | 324° |
| 2026-04-26 10:59 | -20.11914 | -49.29812 | 36021 ft | 436 kts | 324° |
| 2026-04-26 11:00 | -20.06967 | -49.33486 | 36030 ft | 437 kts | 324° |
| 2026-04-26 11:00 | -20.01979 | -49.37189 | 36026 ft | 437 kts | 324° |
| 2026-04-26 11:01 | -19.97533 | -49.40487 | 36022 ft | 437 kts | 324° |
| 2026-04-26 11:01 | -19.92572 | -49.44163 | 36024 ft | 436 kts | 324° |
| 2026-04-26 11:02 | -19.87585 | -49.47857 | 36019 ft | 436 kts | 324° |
| 2026-04-26 11:02 | -19.82602 | -49.51544 | 36026 ft | 436 kts | 324° |
| 2026-04-26 11:03 | -19.77660 | -49.55198 | 36026 ft | 436 kts | 324° |
| 2026-04-26 11:03 | -19.72682 | -49.58877 | 36023 ft | 435 kts | 324° |
| 2026-04-26 11:04 | -19.67715 | -49.62544 | 36020 ft | 435 kts | 324° |
| 2026-04-26 11:04 | -19.62756 | -49.66202 | 36019 ft | 434 kts | 324° |
| 2026-04-26 11:05 | -19.57804 | -49.69853 | 36013 ft | 434 kts | 324° |
| 2026-04-26 11:05 | -19.52840 | -49.73510 | 36019 ft | 434 kts | 324° |
| 2026-04-26 11:06 | -19.47882 | -49.77160 | 36023 ft | 434 kts | 324° |
| 2026-04-26 11:06 | -19.42925 | -49.80806 | 36025 ft | 434 kts | 324° |
| 2026-04-26 11:07 | -19.37962 | -49.84455 | 36019 ft | 434 kts | 325° |
| 2026-04-26 11:07 | -19.32995 | -49.88091 | 36020 ft | 434 kts | 326° |
| 2026-04-26 11:08 | -19.28008 | -49.91635 | 36027 ft | 434 kts | 326° |
| 2026-04-26 11:08 | -19.22981 | -49.95175 | 36026 ft | 434 kts | 326° |
| 2026-04-26 11:09 | -19.17944 | -49.98728 | 36024 ft | 435 kts | 326° |
| 2026-04-26 11:09 | -19.12906 | -50.02289 | 36014 ft | 435 kts | 326° |
| 2026-04-26 11:10 | -19.07862 | -50.05855 | 36023 ft | 436 kts | 326° |
| 2026-04-26 11:10 | -19.02850 | -50.09396 | 36021 ft | 436 kts | 326° |
| 2026-04-26 11:11 | -18.97808 | -50.12957 | 36020 ft | 436 kts | 326° |
| 2026-04-26 11:11 | -18.92762 | -50.16516 | 36017 ft | 436 kts | 326° |
| 2026-04-26 11:12 | -18.87716 | -50.20074 | 36023 ft | 436 kts | 326° |
| 2026-04-26 11:12 | -18.82663 | -50.23633 | 36021 ft | 436 kts | 326° |
| 2026-04-26 11:13 | -18.77610 | -50.27189 | 36019 ft | 436 kts | 326° |
| 2026-04-26 11:13 | -18.72595 | -50.30717 | 36018 ft | 436 kts | 326° |
| 2026-04-26 11:14 | -18.67550 | -50.34263 | 36013 ft | 436 kts | 326° |
| 2026-04-26 11:14 | -18.62502 | -50.37808 | 36023 ft | 435 kts | 326° |
| 2026-04-26 11:15 | -18.57454 | -50.41351 | 36023 ft | 435 kts | 326° |
| 2026-04-26 11:15 | -18.52416 | -50.44885 | 36032 ft | 435 kts | 327° |
| 2026-04-26 11:16 | -18.47366 | -50.48424 | 36023 ft | 435 kts | 327° |
| 2026-04-26 11:16 | -18.42315 | -50.51961 | 36031 ft | 435 kts | 327° |
| 2026-04-26 11:17 | -18.37273 | -50.55490 | 36030 ft | 436 kts | 327° |
| 2026-04-26 11:17 | -18.32215 | -50.59027 | 36033 ft | 436 kts | 327° |
| 2026-04-26 11:18 | -18.27184 | -50.62543 | 36033 ft | 436 kts | 327° |
| 2026-04-26 11:18 | -18.22120 | -50.66080 | 36037 ft | 437 kts | 327° |
| 2026-04-26 11:19 | -18.17054 | -50.69615 | 36033 ft | 437 kts | 327° |
| 2026-04-26 11:19 | -18.11979 | -50.73154 | 36039 ft | 437 kts | 327° |
| 2026-04-26 11:20 | -18.07762 | -50.76093 | 36042 ft | 437 kts | 327° |
| 2026-04-26 11:20 | -18.01824 | -50.80228 | 36032 ft | 438 kts | 327° |
| 2026-04-26 11:21 | -17.96770 | -50.83745 | 36042 ft | 438 kts | 327° |
| 2026-04-26 11:21 | -17.91686 | -50.87280 | 36045 ft | 438 kts | 327° |
| 2026-04-26 11:22 | -17.86598 | -50.90816 | 36044 ft | 439 kts | 327° |
| 2026-04-26 11:22 | -17.81497 | -50.94359 | 36042 ft | 439 kts | 327° |
| 2026-04-26 11:23 | -17.76398 | -50.97897 | 36043 ft | 439 kts | 327° |
| 2026-04-26 11:23 | -17.71338 | -51.01405 | 36050 ft | 439 kts | 327° |
| 2026-04-26 11:24 | -17.66236 | -51.04941 | 36048 ft | 439 kts | 327° |
| 2026-04-26 11:24 | -17.61133 | -51.08475 | 36052 ft | 439 kts | 327° |
| 2026-04-26 11:25 | -17.56055 | -51.11989 | 36051 ft | 439 kts | 327° |
| 2026-04-26 11:25 | -17.50947 | -51.15522 | 36051 ft | 439 kts | 327° |
| 2026-04-26 11:26 | -17.45833 | -51.19056 | 36048 ft | 439 kts | 327° |
| 2026-04-26 11:26 | -17.40724 | -51.22584 | 36048 ft | 439 kts | 327° |
| 2026-04-26 11:27 | -17.35616 | -51.26109 | 36052 ft | 439 kts | 327° |
| 2026-04-26 11:27 | -17.30511 | -51.29630 | 36039 ft | 439 kts | 327° |
| 2026-04-26 11:28 | -17.25441 | -51.33125 | 36047 ft | 439 kts | 327° |
| 2026-04-26 11:28 | -17.20336 | -51.36640 | 36047 ft | 439 kts | 327° |
| 2026-04-26 11:29 | -17.15228 | -51.40156 | 36046 ft | 440 kts | 327° |
| 2026-04-26 11:29 | -17.10107 | -51.43679 | 36047 ft | 440 kts | 327° |
| 2026-04-26 11:30 | -17.05848 | -51.46607 | 36043 ft | 440 kts | 327° |
| 2026-04-26 11:30 | -16.99868 | -51.50714 | 36048 ft | 440 kts | 327° |
| 2026-04-26 11:31 | -16.94778 | -51.54208 | 36043 ft | 441 kts | 327° |
| 2026-04-26 11:31 | -16.89643 | -51.57731 | 36039 ft | 441 kts | 327° |
| 2026-04-26 11:32 | -16.84508 | -51.61251 | 36031 ft | 442 kts | 327° |
| 2026-04-26 11:32 | -16.79375 | -51.64767 | 36038 ft | 442 kts | 327° |
| 2026-04-26 11:33 | -16.74228 | -51.68291 | 36033 ft | 442 kts | 327° |
| 2026-04-26 11:33 | -16.69079 | -51.71814 | 36030 ft | 442 kts | 327° |
| 2026-04-26 11:34 | -16.63961 | -51.75314 | 36031 ft | 442 kts | 327° |
| 2026-04-26 11:34 | -16.58806 | -51.78836 | 36022 ft | 443 kts | 328° |
| 2026-04-26 11:35 | -16.53652 | -51.82355 | 36028 ft | 443 kts | 327° |
| 2026-04-26 11:35 | -16.49364 | -51.85282 | 36021 ft | 443 kts | 327° |
| 2026-04-26 11:36 | -16.43331 | -51.89396 | 36022 ft | 443 kts | 327° |
| 2026-04-26 11:36 | -16.39042 | -51.92320 | 36015 ft | 444 kts | 327° |
| 2026-04-26 11:37 | -16.33873 | -51.95840 | 36011 ft | 444 kts | 328° |
| 2026-04-26 11:37 | -16.28703 | -51.99360 | 36016 ft | 444 kts | 328° |
| 2026-04-26 11:38 | -16.23528 | -52.02880 | 36015 ft | 444 kts | 328° |
| 2026-04-26 11:38 | -16.18357 | -52.06396 | 36017 ft | 444 kts | 327° |
| 2026-04-26 11:39 | -16.13212 | -52.09892 | 36009 ft | 444 kts | 328° |
| 2026-04-26 11:39 | -16.08031 | -52.13410 | 36011 ft | 445 kts | 328° |
| 2026-04-26 11:40 | -16.02843 | -52.16930 | 36013 ft | 445 kts | 328° |
| 2026-04-26 11:40 | -15.97652 | -52.20450 | 36016 ft | 445 kts | 328° |
| 2026-04-26 11:42 | -15.76888 | -52.34509 | 36018 ft | 446 kts | 328° |
| 2026-04-26 11:43 | -15.71691 | -52.38022 | 36015 ft | 445 kts | 328° |
| 2026-04-26 11:43 | -15.66516 | -52.41519 | 36013 ft | 445 kts | 328° |
| 2026-04-26 11:44 | -15.61318 | -52.45029 | 36014 ft | 446 kts | 328° |
| 2026-04-26 11:44 | -15.56116 | -52.48538 | 36018 ft | 446 kts | 328° |
| 2026-04-26 11:45 | -15.50916 | -52.52045 | 36010 ft | 446 kts | 328° |
| 2026-04-26 11:45 | -15.45737 | -52.55535 | 36012 ft | 446 kts | 328° |
| 2026-04-26 11:46 | -15.40529 | -52.59042 | 36013 ft | 446 kts | 328° |
| 2026-04-26 11:46 | -15.35329 | -52.62544 | 36013 ft | 446 kts | 328° |
| 2026-04-26 11:47 | -15.30123 | -52.66046 | 36017 ft | 446 kts | 328° |
| 2026-04-26 11:47 | -15.24920 | -52.69544 | 36017 ft | 446 kts | 328° |
| 2026-04-26 11:48 | -15.19750 | -52.73018 | 36013 ft | 446 kts | 328° |
| 2026-04-26 11:48 | -15.14530 | -52.76523 | 36016 ft | 446 kts | 328° |
| 2026-04-26 11:49 | -15.09316 | -52.80022 | 36014 ft | 446 kts | 328° |
| 2026-04-26 11:49 | -15.04143 | -52.83492 | 36018 ft | 446 kts | 328° |
| 2026-04-26 11:50 | -14.98929 | -52.86987 | 36014 ft | 446 kts | 328° |
| 2026-04-26 11:50 | -14.93715 | -52.90480 | 36018 ft | 446 kts | 328° |
| 2026-04-26 11:51 | -14.88505 | -52.93968 | 36010 ft | 446 kts | 328° |
| 2026-04-26 11:51 | -14.83290 | -52.97459 | 36020 ft | 446 kts | 328° |
| 2026-04-26 11:52 | -14.78067 | -53.00951 | 36017 ft | 447 kts | 328° |
| 2026-04-26 11:52 | -14.72869 | -53.04426 | 36016 ft | 447 kts | 328° |
| 2026-04-26 11:53 | -14.67657 | -53.07907 | 36020 ft | 447 kts | 328° |
| 2026-04-26 11:54 | -14.59798 | -53.13153 | 36016 ft | 448 kts | 328° |
| 2026-04-26 11:54 | -14.54564 | -53.16644 | 36023 ft | 448 kts | 328° |
| 2026-04-26 11:55 | -14.49315 | -53.20143 | 36018 ft | 449 kts | 328° |
| 2026-04-26 11:55 | -14.44094 | -53.23623 | 36021 ft | 449 kts | 328° |
| 2026-04-26 11:56 | -14.38844 | -53.27118 | 36019 ft | 449 kts | 328° |
| 2026-04-26 11:56 | -14.33593 | -53.30613 | 36022 ft | 449 kts | 328° |
| 2026-04-26 11:57 | -14.28340 | -53.34107 | 36020 ft | 449 kts | 328° |
| 2026-04-26 11:57 | -14.23082 | -53.37603 | 36023 ft | 449 kts | 328° |
| 2026-04-26 11:58 | -14.17829 | -53.41093 | 36017 ft | 449 kts | 328° |
| 2026-04-26 11:58 | -14.12577 | -53.44581 | 36018 ft | 449 kts | 327° |
| 2026-04-26 11:59 | -14.07318 | -53.48071 | 36023 ft | 449 kts | 327° |
| 2026-04-26 11:59 | -14.02094 | -53.51537 | 36020 ft | 449 kts | 327° |
| 2026-04-26 12:00 | -13.96828 | -53.55029 | 36028 ft | 449 kts | 328° |
| 2026-04-26 12:00 | -13.91572 | -53.58511 | 36032 ft | 449 kts | 328° |
| 2026-04-26 12:01 | -13.86302 | -53.61993 | 36028 ft | 449 kts | 328° |
| 2026-04-26 12:01 | -13.81038 | -53.65469 | 36024 ft | 450 kts | 328° |
| 2026-04-26 12:02 | -13.75773 | -53.68945 | 36022 ft | 450 kts | 328° |
| 2026-04-26 12:02 | -13.70512 | -53.72418 | 36021 ft | 450 kts | 328° |
| 2026-04-26 12:03 | -13.65241 | -53.75895 | 36100 ft | 455 kts | 327° |
| 2026-04-26 12:03 | -13.62579 | -53.77650 | 36302 ft | 454 kts | 327° |
| 2026-04-26 12:03 | -13.59928 | -53.79398 | 36589 ft | 452 kts | 327° |
| 2026-04-26 12:03 | -13.57278 | -53.81144 | 36809 ft | 451 kts | 327° |
| 2026-04-26 12:04 | -13.54630 | -53.82890 | 36987 ft | 451 kts | 327° |
| 2026-04-26 12:04 | -13.51983 | -53.84633 | 37200 ft | 450 kts | 327° |
| 2026-04-26 12:04 | -13.49379 | -53.86348 | 37447 ft | 449 kts | 327° |
| 2026-04-26 12:04 | -13.46756 | -53.88075 | 37682 ft | 447 kts | 327° |
| 2026-04-26 12:05 | -13.44140 | -53.89797 | 37873 ft | 446 kts | 327° |
| 2026-04-26 12:05 | -13.41528 | -53.91515 | 38009 ft | 446 kts | 327° |
| 2026-04-26 12:05 | -13.38907 | -53.93240 | 38005 ft | 448 kts | 327° |
| 2026-04-26 12:06 | -13.33646 | -53.96699 | 38017 ft | 448 kts | 328° |
| 2026-04-26 12:06 | -13.28405 | -54.00145 | 38022 ft | 446 kts | 328° |
| 2026-04-26 12:07 | -13.23181 | -54.03576 | 38023 ft | 445 kts | 328° |
| 2026-04-26 12:07 | -13.17962 | -54.07003 | 38024 ft | 444 kts | 328° |
| 2026-04-26 12:08 | -13.12775 | -54.10407 | 38018 ft | 444 kts | 328° |
| 2026-04-26 12:08 | -13.07571 | -54.13820 | 38024 ft | 444 kts | 328° |
| 2026-04-26 12:09 | -13.02355 | -54.17240 | 38024 ft | 445 kts | 328° |
| 2026-04-26 12:09 | -12.97159 | -54.20644 | 38021 ft | 446 kts | 328° |
| 2026-04-26 12:10 | -12.91916 | -54.24078 | 38026 ft | 447 kts | 328° |
| 2026-04-26 12:10 | -12.86669 | -54.27513 | 38030 ft | 447 kts | 328° |
| 2026-04-26 12:11 | -12.81411 | -54.30952 | 38024 ft | 448 kts | 328° |
| 2026-04-26 12:11 | -12.76173 | -54.34378 | 38022 ft | 449 kts | 328° |
| 2026-04-26 12:12 | -12.70900 | -54.37824 | 38023 ft | 450 kts | 328° |
| 2026-04-26 12:12 | -12.65611 | -54.41280 | 38020 ft | 450 kts | 328° |
| 2026-04-26 12:13 | -12.60318 | -54.44736 | 38021 ft | 450 kts | 328° |
| 2026-04-26 12:13 | -12.55059 | -54.48168 | 38020 ft | 450 kts | 328° |
| 2026-04-26 12:14 | -12.49774 | -54.51615 | 38023 ft | 450 kts | 328° |
| 2026-04-26 12:14 | -12.44499 | -54.55055 | 38021 ft | 449 kts | 328° |
| 2026-04-26 12:15 | -12.39263 | -54.58467 | 38022 ft | 448 kts | 328° |
| 2026-04-26 12:15 | -12.34000 | -54.61895 | 38023 ft | 447 kts | 328° |
| 2026-04-26 12:16 | -12.28754 | -54.65310 | 38022 ft | 447 kts | 328° |
| 2026-04-26 12:16 | -12.23506 | -54.68725 | 38015 ft | 446 kts | 328° |
| 2026-04-26 12:17 | -12.18265 | -54.72134 | 38022 ft | 445 kts | 328° |
| 2026-04-26 12:17 | -12.13032 | -54.75536 | 38027 ft | 445 kts | 328° |
| 2026-04-26 12:18 | -12.07839 | -54.78910 | 38023 ft | 445 kts | 328° |
| 2026-04-26 12:18 | -12.02600 | -54.82313 | 38028 ft | 445 kts | 328° |
| 2026-04-26 12:19 | -11.97363 | -54.85713 | 38017 ft | 445 kts | 328° |
| 2026-04-26 12:19 | -11.92137 | -54.89104 | 38024 ft | 445 kts | 328° |
| 2026-04-26 12:20 | -11.86934 | -54.92479 | 38026 ft | 445 kts | 328° |
| 2026-04-26 12:20 | -11.81692 | -54.95877 | 38025 ft | 446 kts | 328° |
| 2026-04-26 12:21 | -11.76450 | -54.99273 | 38023 ft | 446 kts | 328° |
| 2026-04-26 12:21 | -11.71210 | -55.02668 | 38030 ft | 446 kts | 328° |
| 2026-04-26 12:22 | -11.65968 | -55.06061 | 38031 ft | 446 kts | 328° |
| 2026-04-26 12:22 | -11.60753 | -55.09436 | 38025 ft | 446 kts | 328° |
| 2026-04-26 12:23 | -11.55500 | -55.12834 | 38024 ft | 447 kts | 328° |
| 2026-04-26 12:23 | -11.51130 | -55.15659 | 38026 ft | 447 kts | 328° |
| 2026-04-26 12:24 | -11.44995 | -55.19624 | 38026 ft | 446 kts | 328° |
| 2026-04-26 12:24 | -11.40631 | -55.22443 | 38027 ft | 447 kts | 328° |
| 2026-04-26 12:25 | -11.32749 | -55.27531 | 38026 ft | 447 kts | 328° |
| 2026-04-26 12:25 | -11.26645 | -55.31471 | 38028 ft | 447 kts | 328° |
| 2026-04-26 12:26 | -11.22269 | -55.34293 | 38029 ft | 447 kts | 328° |
| 2026-04-26 12:26 | -11.17005 | -55.37687 | 38035 ft | 447 kts | 329° |
| 2026-04-26 12:27 | -11.11736 | -55.41083 | 38023 ft | 448 kts | 329° |
| 2026-04-26 12:27 | -11.06469 | -55.44475 | 38028 ft | 448 kts | 329° |
| 2026-04-26 12:28 | -11.01192 | -55.47873 | 38026 ft | 448 kts | 329° |
| 2026-04-26 12:28 | -10.95947 | -55.51249 | 38022 ft | 449 kts | 329° |
| 2026-04-26 12:29 | -10.90670 | -55.54643 | 38030 ft | 449 kts | 328° |
| 2026-04-26 12:30 | -10.82730 | -55.59749 | 38026 ft | 450 kts | 329° |
| 2026-04-26 12:30 | -10.77432 | -55.63154 | 38025 ft | 451 kts | 329° |
| 2026-04-26 12:31 | -10.69500 | -55.68249 | 38028 ft | 451 kts | 329° |
| 2026-04-26 12:31 | -10.64174 | -55.71668 | 38028 ft | 452 kts | 329° |
| 2026-04-26 12:32 | -10.58851 | -55.75084 | 38025 ft | 452 kts | 329° |
| 2026-04-26 12:33 | -10.50871 | -55.80202 | 38032 ft | 452 kts | 329° |
| 2026-04-26 12:33 | -10.45545 | -55.83616 | 38028 ft | 453 kts | 329° |
| 2026-04-26 12:34 | -10.40251 | -55.87008 | 38025 ft | 453 kts | 329° |
| 2026-04-26 12:34 | -10.34917 | -55.90425 | 38025 ft | 453 kts | 329° |
| 2026-04-26 12:35 | -10.29573 | -55.93847 | 38027 ft | 454 kts | 329° |
| 2026-04-26 12:35 | -10.24231 | -55.97266 | 38029 ft | 454 kts | 329° |
| 2026-04-26 12:36 | -10.18879 | -56.00690 | 38025 ft | 454 kts | 329° |
| 2026-04-26 12:36 | -10.13528 | -56.04112 | 38028 ft | 455 kts | 329° |
| 2026-04-26 12:37 | -10.08167 | -56.07538 | 38035 ft | 455 kts | 329° |
| 2026-04-26 12:37 | -10.02804 | -56.10965 | 38020 ft | 455 kts | 329° |
| 2026-04-26 12:38 | -9.97470 | -56.14373 | 38024 ft | 456 kts | 329° |
| 2026-04-26 12:38 | -9.92101 | -56.17801 | 38023 ft | 456 kts | 329° |
| 2026-04-26 12:39 | -9.86725 | -56.21233 | 38025 ft | 457 kts | 329° |
| 2026-04-26 12:39 | -9.81330 | -56.24675 | 38025 ft | 457 kts | 329° |
| 2026-04-26 12:40 | -9.75939 | -56.28114 | 38024 ft | 458 kts | 329° |
| 2026-04-26 12:40 | -9.70579 | -56.31541 | 38029 ft | 458 kts | 328° |
| 2026-04-26 12:41 | -9.65226 | -56.35061 | 38030 ft | 458 kts | 328° |
| 2026-04-26 12:41 | -9.59886 | -56.38602 | 38029 ft | 458 kts | 328° |
| 2026-04-26 12:42 | -9.54551 | -56.42132 | 38028 ft | 458 kts | 328° |
| 2026-04-26 12:42 | -9.49243 | -56.45634 | 38033 ft | 457 kts | 328° |
| 2026-04-26 12:43 | -9.43907 | -56.49150 | 38023 ft | 457 kts | 328° |
| 2026-04-26 12:43 | -9.38569 | -56.52665 | 38029 ft | 457 kts | 328° |
| 2026-04-26 12:44 | -9.33270 | -56.56153 | 38027 ft | 457 kts | 328° |
| 2026-04-26 12:44 | -9.27932 | -56.59666 | 38025 ft | 456 kts | 328° |
| 2026-04-26 12:45 | -9.22608 | -56.63168 | 38024 ft | 456 kts | 328° |
| 2026-04-26 12:45 | -9.17286 | -56.66668 | 38037 ft | 456 kts | 328° |
| 2026-04-26 12:46 | -9.11969 | -56.70163 | 38029 ft | 456 kts | 328° |
| 2026-04-26 12:46 | -9.06677 | -56.73641 | 38026 ft | 455 kts | 328° |
| 2026-04-26 12:47 | -9.01363 | -56.77132 | 38023 ft | 455 kts | 328° |
| 2026-04-26 12:47 | -8.96047 | -56.80622 | 38028 ft | 455 kts | 328° |
| 2026-04-26 12:48 | -8.90740 | -56.84106 | 38029 ft | 455 kts | 328° |
| 2026-04-26 12:48 | -8.85434 | -56.87588 | 38032 ft | 454 kts | 328° |
| 2026-04-26 12:49 | -8.80161 | -56.91047 | 38026 ft | 454 kts | 328° |
| 2026-04-26 12:49 | -8.74853 | -56.94527 | 38038 ft | 454 kts | 328° |
| 2026-04-26 12:50 | -8.69548 | -56.98005 | 38026 ft | 454 kts | 328° |
| 2026-04-26 12:50 | -8.64246 | -57.01479 | 38031 ft | 454 kts | 328° |
| 2026-04-26 12:51 | -8.58942 | -57.04954 | 38034 ft | 454 kts | 328° |
| 2026-04-26 12:51 | -8.53645 | -57.08423 | 38030 ft | 454 kts | 328° |
| 2026-04-26 12:52 | -8.48332 | -57.11901 | 38030 ft | 454 kts | 328° |
| 2026-04-26 12:52 | -8.43058 | -57.15352 | 38029 ft | 454 kts | 328° |
| 2026-04-26 12:53 | -8.37751 | -57.18824 | 38024 ft | 454 kts | 328° |
| 2026-04-26 12:53 | -8.32446 | -57.22293 | 38030 ft | 455 kts | 328° |
| 2026-04-26 12:54 | -8.27116 | -57.25778 | 38026 ft | 455 kts | 328° |
| 2026-04-26 12:54 | -8.21824 | -57.29236 | 38031 ft | 455 kts | 328° |
| 2026-04-26 12:55 | -8.16502 | -57.32714 | 38023 ft | 456 kts | 328° |
| 2026-04-26 12:55 | -8.11174 | -57.36194 | 38024 ft | 456 kts | 328° |
| 2026-04-26 12:56 | -8.05837 | -57.39679 | 38025 ft | 456 kts | 328° |
| 2026-04-26 12:56 | -8.00497 | -57.43164 | 38019 ft | 457 kts | 329° |
| 2026-04-26 12:57 | -7.95162 | -57.46645 | 38025 ft | 457 kts | 329° |
| 2026-04-26 12:57 | -7.89861 | -57.50103 | 38015 ft | 457 kts | 329° |
| 2026-04-26 12:58 | -7.81847 | -57.55329 | 38016 ft | 456 kts | 329° |
| 2026-04-26 12:58 | -7.76545 | -57.58785 | 38025 ft | 456 kts | 329° |
| 2026-04-26 12:59 | -7.71211 | -57.62260 | 38017 ft | 455 kts | 329° |
| 2026-04-26 12:59 | -7.65886 | -57.65729 | 38028 ft | 455 kts | 329° |
| 2026-04-26 13:00 | -7.60596 | -57.69174 | 38030 ft | 455 kts | 329° |
| 2026-04-26 13:00 | -7.55272 | -57.72640 | 38024 ft | 455 kts | 329° |
| 2026-04-26 13:01 | -7.49953 | -57.76101 | 38032 ft | 454 kts | 329° |
| 2026-04-26 13:01 | -7.44638 | -57.79560 | 38024 ft | 454 kts | 329° |
| 2026-04-26 13:02 | -7.39365 | -57.82990 | 38019 ft | 454 kts | 329° |
| 2026-04-26 13:02 | -7.34057 | -57.86441 | 38015 ft | 454 kts | 329° |
| 2026-04-26 13:03 | -7.28755 | -57.89887 | 38026 ft | 453 kts | 329° |
| 2026-04-26 13:03 | -7.23455 | -57.93332 | 38018 ft | 453 kts | 329° |
| 2026-04-26 13:04 | -7.18151 | -57.96778 | 38030 ft | 454 kts | 329° |
| 2026-04-26 13:04 | -7.12842 | -58.00226 | 38036 ft | 454 kts | 329° |
| 2026-04-26 13:05 | -7.07560 | -58.03655 | 38022 ft | 455 kts | 329° |
| 2026-04-26 13:05 | -7.02242 | -58.07108 | 38035 ft | 455 kts | 329° |
| 2026-04-26 13:06 | -6.96908 | -58.10569 | 38030 ft | 455 kts | 329° |
| 2026-04-26 13:06 | -6.91575 | -58.14029 | 38025 ft | 456 kts | 329° |
| 2026-04-26 13:07 | -6.86245 | -58.17486 | 38028 ft | 456 kts | 329° |
| 2026-04-26 13:07 | -6.80939 | -58.20927 | 38025 ft | 456 kts | 329° |
| 2026-04-26 13:08 | -6.75596 | -58.24390 | 38027 ft | 457 kts | 329° |
| 2026-04-26 13:08 | -6.70252 | -58.27854 | 38031 ft | 457 kts | 329° |
| 2026-04-26 13:09 | -6.64933 | -58.31300 | 38032 ft | 457 kts | 329° |
| 2026-04-26 13:09 | -6.59580 | -58.34768 | 38019 ft | 457 kts | 329° |
| 2026-04-26 13:10 | -6.54233 | -58.38230 | 38020 ft | 457 kts | 329° |
| 2026-04-26 13:10 | -6.48880 | -58.41696 | 38035 ft | 457 kts | 329° |
| 2026-04-26 13:11 | -6.43557 | -58.45141 | 38030 ft | 457 kts | 329° |
| 2026-04-26 13:11 | -6.38199 | -58.48609 | 38034 ft | 458 kts | 329° |
| 2026-04-26 13:12 | -6.32840 | -58.52075 | 38029 ft | 458 kts | 329° |
| 2026-04-26 13:12 | -6.27475 | -58.55545 | 38029 ft | 459 kts | 329° |
| 2026-04-26 13:13 | -6.23012 | -58.58431 | 38032 ft | 459 kts | 329° |
| 2026-04-26 13:13 | -6.17631 | -58.61910 | 38017 ft | 460 kts | 329° |
| 2026-04-26 13:14 | -6.12241 | -58.65393 | 38020 ft | 460 kts | 329° |
| 2026-04-26 13:14 | -6.06853 | -58.68874 | 38023 ft | 461 kts | 329° |
| 2026-04-26 13:15 | -6.01477 | -58.72347 | 38013 ft | 461 kts | 329° |
| 2026-04-26 13:15 | -5.96067 | -58.75841 | 38013 ft | 462 kts | 329° |
| 2026-04-26 13:16 | -5.90651 | -58.79338 | 38024 ft | 462 kts | 329° |
| 2026-04-26 13:16 | -5.85236 | -58.82834 | 38028 ft | 463 kts | 329° |
| 2026-04-26 13:17 | -5.77149 | -58.88053 | 38021 ft | 463 kts | 329° |
| 2026-04-26 13:18 | -5.69028 | -58.93292 | 38012 ft | 462 kts | 329° |
| 2026-04-26 13:19 | -5.60918 | -58.98522 | 38009 ft | 461 kts | 329° |
| 2026-04-26 13:19 | -5.55524 | -59.02000 | 38007 ft | 461 kts | 329° |
| 2026-04-26 13:20 | -5.50124 | -59.05481 | 38001 ft | 460 kts | 329° |
| 2026-04-26 13:20 | -5.44767 | -59.08933 | 38005 ft | 460 kts | 329° |
| 2026-04-26 13:21 | -5.39367 | -59.12413 | 38005 ft | 460 kts | 329° |
| 2026-04-26 13:21 | -5.33979 | -59.15883 | 38012 ft | 460 kts | 329° |
| 2026-04-26 13:22 | -5.28613 | -59.19339 | 38003 ft | 461 kts | 329° |
| 2026-04-26 13:22 | -5.23210 | -59.22818 | 38002 ft | 461 kts | 329° |
| 2026-04-26 13:23 | -5.17829 | -59.26282 | 38004 ft | 462 kts | 329° |
| 2026-04-26 13:23 | -5.12420 | -59.29763 | 38007 ft | 462 kts | 329° |
| 2026-04-26 13:24 | -5.07006 | -59.33247 | 38000 ft | 462 kts | 329° |
| 2026-04-26 13:24 | -5.01562 | -59.36749 | 37467 ft | 469 kts | 329° |
| 2026-04-26 13:24 | -4.98822 | -59.38511 | 36947 ft | 467 kts | 329° |
| 2026-04-26 13:25 | -4.96095 | -59.40266 | 36381 ft | 466 kts | 329° |
| 2026-04-26 13:25 | -4.93366 | -59.42022 | 35807 ft | 465 kts | 330° |
| 2026-04-26 13:25 | -4.90639 | -59.43776 | 35179 ft | 466 kts | 329° |
| 2026-04-26 13:25 | -4.87895 | -59.45539 | 34524 ft | 468 kts | 329° |
| 2026-04-26 13:26 | -4.85153 | -59.47302 | 33841 ft | 471 kts | 329° |
| 2026-04-26 13:26 | -4.82384 | -59.49082 | 33091 ft | 473 kts | 329° |
| 2026-04-26 13:26 | -4.79608 | -59.50866 | 32392 ft | 473 kts | 329° |
| 2026-04-26 13:26 | -4.76849 | -59.52640 | 31915 ft | 469 kts | 329° |
| 2026-04-26 13:27 | -4.74112 | -59.54401 | 31417 ft | 466 kts | 329° |
| 2026-04-26 13:27 | -4.71428 | -59.56126 | 30936 ft | 462 kts | 329° |
| 2026-04-26 13:27 | -4.68728 | -59.57862 | 30432 ft | 460 kts | 329° |
| 2026-04-26 13:27 | -4.66032 | -59.59594 | 29918 ft | 457 kts | 329° |
| 2026-04-26 13:28 | -4.63355 | -59.61314 | 29370 ft | 454 kts | 329° |
| 2026-04-26 13:28 | -4.60711 | -59.63013 | 28847 ft | 450 kts | 329° |
| 2026-04-26 13:28 | -4.58085 | -59.64700 | 28337 ft | 446 kts | 330° |
| 2026-04-26 13:28 | -4.55481 | -59.66373 | 27841 ft | 442 kts | 329° |
| 2026-04-26 13:29 | -4.52902 | -59.68029 | 27361 ft | 438 kts | 329° |
| 2026-04-26 13:29 | -4.51207 | -59.69117 | 27031 ft | 435 kts | 329° |
| 2026-04-26 13:29 | -4.47845 | -59.71276 | 26402 ft | 431 kts | 329° |
| 2026-04-26 13:29 | -4.45327 | -59.72892 | 25922 ft | 427 kts | 329° |
| 2026-04-26 13:30 | -4.42833 | -59.74493 | 25443 ft | 424 kts | 329° |
| 2026-04-26 13:30 | -4.40350 | -59.76087 | 24963 ft | 422 kts | 329° |
| 2026-04-26 13:30 | -4.37888 | -59.77668 | 24483 ft | 419 kts | 329° |
| 2026-04-26 13:30 | -4.35434 | -59.79242 | 24003 ft | 417 kts | 329° |
| 2026-04-26 13:31 | -4.33000 | -59.80805 | 23530 ft | 414 kts | 329° |
| 2026-04-26 13:31 | -4.30580 | -59.82358 | 22986 ft | 412 kts | 329° |
| 2026-04-26 13:31 | -4.28208 | -59.83880 | 22510 ft | 408 kts | 329° |
| 2026-04-26 13:31 | -4.25831 | -59.85406 | 22036 ft | 404 kts | 329° |
| 2026-04-26 13:32 | -4.23478 | -59.86916 | 21567 ft | 400 kts | 329° |
| 2026-04-26 13:32 | -4.21141 | -59.88415 | 21120 ft | 397 kts | 329° |
| 2026-04-26 13:32 | -4.18821 | -59.89904 | 20669 ft | 394 kts | 329° |
| 2026-04-26 13:32 | -4.16523 | -59.91378 | 20224 ft | 391 kts | 329° |
| 2026-04-26 13:33 | -4.14236 | -59.92845 | 19780 ft | 388 kts | 329° |
| 2026-04-26 13:33 | -4.11968 | -59.94300 | 19328 ft | 386 kts | 328° |
| 2026-04-26 13:33 | -4.09661 | -59.95681 | 18873 ft | 383 kts | 337° |
| 2026-04-26 13:33 | -4.07193 | -59.96547 | 18459 ft | 379 kts | 345° |
| 2026-04-26 13:34 | -4.04655 | -59.97281 | 17958 ft | 378 kts | 345° |
| 2026-04-26 13:34 | -4.02129 | -59.97987 | 17496 ft | 375 kts | 345° |
| 2026-04-26 13:34 | -3.99616 | -59.98696 | 17045 ft | 372 kts | 345° |
| 2026-04-26 13:34 | -3.97974 | -59.99167 | 16756 ft | 370 kts | 345° |
| 2026-04-26 13:35 | -3.94676 | -60.00128 | 16176 ft | 367 kts | 345° |
| 2026-04-26 13:35 | -3.92234 | -60.00850 | 15755 ft | 364 kts | 345° |
| 2026-04-26 13:35 | -3.89842 | -60.01561 | 15340 ft | 361 kts | 344° |
| 2026-04-26 13:35 | -3.87446 | -60.02277 | 14922 ft | 359 kts | 344° |
| 2026-04-26 13:36 | -3.85055 | -60.02991 | 14505 ft | 357 kts | 345° |
| 2026-04-26 13:36 | -3.82682 | -60.03702 | 14076 ft | 355 kts | 345° |
| 2026-04-26 13:36 | -3.80313 | -60.04410 | 13629 ft | 354 kts | 345° |
| 2026-04-26 13:36 | -3.77964 | -60.05113 | 13184 ft | 352 kts | 345° |
| 2026-04-26 13:37 | -3.75618 | -60.05815 | 12754 ft | 349 kts | 345° |
| 2026-04-26 13:37 | -3.73298 | -60.06509 | 12333 ft | 346 kts | 345° |
| 2026-04-26 13:37 | -3.71031 | -60.07187 | 11927 ft | 343 kts | 345° |
| 2026-04-26 13:37 | -3.68750 | -60.07869 | 11510 ft | 341 kts | 345° |
| 2026-04-26 13:38 | -3.66483 | -60.08547 | 11125 ft | 338 kts | 345° |
| 2026-04-26 13:38 | -3.64236 | -60.09226 | 10732 ft | 336 kts | 344° |
| 2026-04-26 13:38 | -3.62002 | -60.09914 | 10344 ft | 334 kts | 344° |
| 2026-04-26 13:38 | -3.59795 | -60.10612 | 9942 ft | 332 kts | 343° |
| 2026-04-26 13:39 | -3.57603 | -60.11325 | 9523 ft | 330 kts | 343° |
| 2026-04-26 13:39 | -3.55432 | -60.12054 | 9142 ft | 329 kts | 342° |
| 2026-04-26 13:39 | -3.53275 | -60.12801 | 8921 ft | 326 kts | 342° |
| 2026-04-26 13:39 | -3.51154 | -60.13554 | 8819 ft | 320 kts | 342° |
| 2026-04-26 13:40 | -3.49065 | -60.14298 | 8680 ft | 316 kts | 342° |
| 2026-04-26 13:40 | -3.46990 | -60.15027 | 8413 ft | 317 kts | 342° |
| 2026-04-26 13:40 | -3.44896 | -60.15742 | 8078 ft | 319 kts | 343° |
| 2026-04-26 13:40 | -3.42808 | -60.16432 | 7807 ft | 319 kts | 343° |
| 2026-04-26 13:41 | -3.40717 | -60.17094 | 7618 ft | 308 kts | 344° |
| 2026-04-26 13:41 | -3.38700 | -60.17701 | 7316 ft | 300 kts | 345° |
| 2026-04-26 13:41 | -3.36687 | -60.18272 | 6741 ft | 302 kts | 346° |
| 2026-04-26 13:41 | -3.34641 | -60.18813 | 6083 ft | 307 kts | 347° |
| 2026-04-26 13:42 | -3.32570 | -60.19323 | 5556 ft | 305 kts | 348° |
| 2026-04-26 13:42 | -3.30518 | -60.19783 | 5203 ft | 297 kts | 350° |
| 2026-04-26 13:42 | -3.28543 | -60.20178 | 4886 ft | 291 kts | 351° |
| 2026-04-26 13:42 | -3.26557 | -60.20520 | 4426 ft | 289 kts | 352° |
| 2026-04-26 13:43 | -3.24553 | -60.20805 | 3884 ft | 291 kts | 354° |
| 2026-04-26 13:43 | -3.22539 | -60.21021 | 3385 ft | 292 kts | 356° |
| 2026-04-26 13:43 | -3.20522 | -60.21166 | 2993 ft | 288 kts | 357° |
| 2026-04-26 13:43 | -3.18530 | -60.21253 | 2707 ft | 284 kts | 359° |
| 2026-04-26 13:44 | -3.16549 | -60.21284 | 2475 ft | 284 kts | 1° |
| 2026-04-26 13:44 | -3.14569 | -60.21256 | 2198 ft | 284 kts | 2° |
| 2026-04-26 13:44 | -3.12682 | -60.21242 | 2295 ft | 252 kts | 2° |
| 2026-04-26 13:44 | -3.11094 | -60.20965 | 2306 ft | 219 kts | 23° |
| 2026-04-26 13:45 | -3.09903 | -60.20163 | 2144 ft | 194 kts | 40° |
| 2026-04-26 13:45 | -3.08940 | -60.19319 | 1923 ft | 178 kts | 39° |
| 2026-04-26 13:45 | -3.08024 | -60.18555 | 1650 ft | 164 kts | 37° |
| 2026-04-26 13:45 | -3.07181 | -60.17871 | 1369 ft | 153 kts | 39° |
| 2026-04-26 13:46 | -3.06419 | -60.17197 | 1247 ft | 136 kts | 44° |
| 2026-04-26 13:46 | -3.05753 | -60.16502 | 1232 ft | 142 kts | 47° |
| 2026-04-26 13:46 | -3.05134 | -60.15700 | 1327 ft | 150 kts | 62° |
| 2026-04-26 13:46 | -3.04758 | -60.14726 | 1587 ft | 146 kts | 71° |
| 2026-04-26 13:47 | -3.04486 | -60.13782 | 1555 ft | 138 kts | 73° |
| 2026-04-26 13:47 | -3.04240 | -60.12847 | 1374 ft | 138 kts | 75° |
| 2026-04-26 13:47 | -3.04024 | -60.11911 | 1234 ft | 139 kts | 76° |
| 2026-04-26 13:47 | -3.03827 | -60.10961 | 1028 ft | 135 kts | 78° |
| 2026-04-26 13:48 | -3.03760 | -60.10024 | 917 ft | 135 kts | 90° |
| 2026-04-26 13:48 | -3.03803 | -60.09078 | 757 ft | 137 kts | 91° |
| 2026-04-26 13:48 | -3.03850 | -60.08117 | 628 ft | 137 kts | 90° |
| 2026-04-26 13:48 | -3.03851 | -60.07132 | 518 ft | 148 kts | 88° |
| 2026-04-26 13:49 | -3.03862 | -60.06142 | 310 ft | 134 kts | 89° |
| 2026-04-26 13:49 | -3.03858 | -60.05273 | 266 ft | 115 kts | 90° |
| 2026-04-26 13:49 | -3.03861 | -60.04663 | 268 ft | 52 kts | 90° |
| 2026-04-26 13:49 | -3.03860 | -60.04391 | 269 ft | 22 kts | 90° |
| 2026-04-26 13:50 | -3.03861 | -60.04199 | 268 ft | 31 kts | 90° |
| 2026-04-26 13:50 | -3.03860 | -60.04019 | 268 ft | 20 kts | 90° |
| 2026-04-26 13:50 | -3.03860 | -60.03889 | 267 ft | 17 kts | 90° |
| 2026-04-26 13:50 | -3.03835 | -60.03793 | 267 ft | 13 kts | 47° |
| 2026-04-26 13:51 | -3.03763 | -60.03771 | 268 ft | 10 kts | 351° |
| 2026-04-26 13:51 | -3.03706 | -60.03806 | 268 ft | 9 kts | 310° |
| 2026-04-26 13:51 | -3.03680 | -60.03862 | 267 ft | 9 kts | 285° |
| 2026-04-26 13:51 | -3.03664 | -60.03917 | 267 ft | 8 kts | 285° |
| 2026-04-26 13:52 | -3.03650 | -60.03969 | 267 ft | 7 kts | 285° |
| 2026-04-26 13:52 | -3.03637 | -60.04017 | 267 ft | 7 kts | 285° |
| 2026-04-26 13:52 | -3.03624 | -60.04063 | 267 ft | 7 kts | 285° |
| 2026-04-26 13:52 | -3.03609 | -60.04118 | 267 ft | 12 kts | 285° |
| 2026-04-26 13:53 | -3.03581 | -60.04210 | 267 ft | 14 kts | 294° |
| 2026-04-26 13:53 | -3.03531 | -60.04289 | 267 ft | 13 kts | 311° |
| 2026-04-26 13:53 | -3.03467 | -60.04344 | 267 ft | 12 kts | 329° |
| 2026-04-26 13:53 | -3.03394 | -60.04374 | 267 ft | 12 kts | 343° |
| 2026-04-26 13:54 | -3.03318 | -60.04365 | 267 ft | 11 kts | 49° |
| 2026-04-26 13:54 | -3.03289 | -60.04297 | 267 ft | 9 kts | 70° |
| 2026-04-26 13:54 | -3.03244 | -60.04283 | 267 ft | 7 kts | 346° |
| 2026-04-26 13:55 | -3.03221 | -60.04289 | 267 ft | 0 kts | 345° |